sensor_id;sensor_type;location;lat;lon;timestamp;P1;durP1;ratioP1;P2;durP2;ratioP2
6999;SDS011;3540;53.242;10.408;2023-05-07T00:01:48;7.97;;;6.63;;
6999;SDS011;3540;53.242;10.408;2023-05-07T00:04:14;9.10;;;6.93;;
6999;SDS011;3540;53.242;10.408;2023-05-07T00:06:39;8.03;;;6.60;;
6999;SDS011;3540;53.242;10.408;2023-05-07T00:09:05;9.23;;;6.70;;
6999;SDS011;3540;53.242;10.408;2023-05-07T00:11:31;12.00;;;8.77;;
6999;SDS011;3540;53.242;10.408;2023-05-07T00:13:58;7.63;;;6.87;;
6999;SDS011;3540;53.242;10.408;2023-05-07T00:16:23;8.03;;;6.70;;
6999;SDS011;3540;53.242;10.408;2023-05-07T00:18:49;8.80;;;6.83;;
6999;SDS011;3540;53.242;10.408;2023-05-07T00:21:15;7.87;;;6.63;;
6999;SDS011;3540;53.242;10.408;2023-05-07T00:23:41;7.03;;;6.33;;
6999;SDS011;3540;53.242;10.408;2023-05-07T00:26:06;7.13;;;6.17;;
6999;SDS011;3540;53.242;10.408;2023-05-07T00:28:32;7.87;;;6.30;;
6999;SDS011;3540;53.242;10.408;2023-05-07T00:30:57;6.57;;;5.97;;
6999;SDS011;3540;53.242;10.408;2023-05-07T00:33:23;9.10;;;6.87;;
6999;SDS011;3540;53.242;10.408;2023-05-07T00:35:48;6.77;;;6.03;;
6999;SDS011;3540;53.242;10.408;2023-05-07T00:38:15;8.13;;;6.53;;
6999;SDS011;3540;53.242;10.408;2023-05-07T00:40:40;7.03;;;6.33;;
6999;SDS011;3540;53.242;10.408;2023-05-07T00:43:06;7.37;;;6.60;;
6999;SDS011;3540;53.242;10.408;2023-05-07T00:45:32;6.83;;;5.80;;
6999;SDS011;3540;53.242;10.408;2023-05-07T00:47:59;6.87;;;6.17;;
6999;SDS011;3540;53.242;10.408;2023-05-07T00:50:26;7.13;;;6.43;;
6999;SDS011;3540;53.242;10.408;2023-05-07T00:52:52;7.37;;;6.30;;
6999;SDS011;3540;53.242;10.408;2023-05-07T00:55:18;7.87;;;6.50;;
6999;SDS011;3540;53.242;10.408;2023-05-07T00:57:44;9.33;;;6.30;;
6999;SDS011;3540;53.242;10.408;2023-05-07T01:00:10;6.80;;;6.10;;
6999;SDS011;3540;53.242;10.408;2023-05-07T01:02:40;8.00;;;6.20;;
6999;SDS011;3540;53.242;10.408;2023-05-07T01:05:07;7.60;;;6.80;;
6999;SDS011;3540;53.242;10.408;2023-05-07T01:07:35;6.93;;;6.23;;
6999;SDS011;3540;53.242;10.408;2023-05-07T01:10:02;7.40;;;6.17;;
6999;SDS011;3540;53.242;10.408;2023-05-07T01:12:29;7.37;;;6.37;;
6999;SDS011;3540;53.242;10.408;2023-05-07T01:14:56;7.23;;;6.20;;
6999;SDS011;3540;53.242;10.408;2023-05-07T01:17:22;7.60;;;6.60;;
6999;SDS011;3540;53.242;10.408;2023-05-07T01:19:48;9.90;;;7.27;;
6999;SDS011;3540;53.242;10.408;2023-05-07T01:22:15;7.73;;;6.73;;
6999;SDS011;3540;53.242;10.408;2023-05-07T01:24:45;8.97;;;7.13;;
6999;SDS011;3540;53.242;10.408;2023-05-07T01:27:11;8.53;;;7.03;;
6999;SDS011;3540;53.242;10.408;2023-05-07T01:29:37;8.27;;;6.53;;
6999;SDS011;3540;53.242;10.408;2023-05-07T01:32:02;10.67;;;7.00;;
6999;SDS011;3540;53.242;10.408;2023-05-07T01:34:30;7.37;;;6.47;;
6999;SDS011;3540;53.242;10.408;2023-05-07T01:36:57;7.43;;;6.63;;
6999;SDS011;3540;53.242;10.408;2023-05-07T01:39:24;12.47;;;7.00;;
6999;SDS011;3540;53.242;10.408;2023-05-07T01:41:53;7.90;;;7.10;;
6999;SDS011;3540;53.242;10.408;2023-05-07T01:44:20;7.97;;;7.17;;
6999;SDS011;3540;53.242;10.408;2023-05-07T01:46:47;8.80;;;6.93;;
6999;SDS011;3540;53.242;10.408;2023-05-07T01:49:13;9.10;;;7.47;;
6999;SDS011;3540;53.242;10.408;2023-05-07T01:51:39;7.83;;;7.03;;
6999;SDS011;3540;53.242;10.408;2023-05-07T01:54:05;7.93;;;7.00;;
6999;SDS011;3540;53.242;10.408;2023-05-07T01:56:31;8.10;;;7.30;;
6999;SDS011;3540;53.242;10.408;2023-05-07T01:58:57;9.23;;;7.27;;
6999;SDS011;3540;53.242;10.408;2023-05-07T02:01:22;8.80;;;7.90;;
6999;SDS011;3540;53.242;10.408;2023-05-07T02:03:48;10.67;;;8.20;;
6999;SDS011;3540;53.242;10.408;2023-05-07T02:06:14;8.97;;;7.77;;
6999;SDS011;3540;53.242;10.408;2023-05-07T02:08:40;10.33;;;8.27;;
6999;SDS011;3540;53.242;10.408;2023-05-07T02:11:05;8.63;;;7.73;;
6999;SDS011;3540;53.242;10.408;2023-05-07T02:13:31;9.57;;;8.47;;
6999;SDS011;3540;53.242;10.408;2023-05-07T02:15:58;8.77;;;7.93;;
6999;SDS011;3540;53.242;10.408;2023-05-07T02:18:24;10.33;;;8.47;;
6999;SDS011;3540;53.242;10.408;2023-05-07T02:20:50;9.30;;;8.20;;
6999;SDS011;3540;53.242;10.408;2023-05-07T02:23:15;10.70;;;8.27;;
6999;SDS011;3540;53.242;10.408;2023-05-07T02:25:41;10.83;;;7.87;;
6999;SDS011;3540;53.242;10.408;2023-05-07T02:28:06;9.30;;;8.03;;
6999;SDS011;3540;53.242;10.408;2023-05-07T02:30:32;10.27;;;8.13;;
6999;SDS011;3540;53.242;10.408;2023-05-07T02:32:58;10.43;;;8.40;;
6999;SDS011;3540;53.242;10.408;2023-05-07T02:35:24;8.90;;;7.93;;
6999;SDS011;3540;53.242;10.408;2023-05-07T02:37:53;10.27;;;8.37;;
6999;SDS011;3540;53.242;10.408;2023-05-07T02:40:18;9.50;;;8.23;;
6999;SDS011;3540;53.242;10.408;2023-05-07T02:42:44;10.13;;;8.20;;
6999;SDS011;3540;53.242;10.408;2023-05-07T02:45:10;9.87;;;8.43;;
6999;SDS011;3540;53.242;10.408;2023-05-07T02:47:35;10.57;;;8.67;;
6999;SDS011;3540;53.242;10.408;2023-05-07T02:50:01;9.70;;;8.60;;
6999;SDS011;3540;53.242;10.408;2023-05-07T02:52:27;11.73;;;8.47;;
6999;SDS011;3540;53.242;10.408;2023-05-07T02:54:53;10.07;;;8.73;;
6999;SDS011;3540;53.242;10.408;2023-05-07T02:57:19;10.13;;;8.70;;
6999;SDS011;3540;53.242;10.408;2023-05-07T02:59:44;9.20;;;8.30;;
6999;SDS011;3540;53.242;10.408;2023-05-07T03:02:10;11.50;;;8.57;;
6999;SDS011;3540;53.242;10.408;2023-05-07T03:04:36;11.07;;;9.13;;
6999;SDS011;3540;53.242;10.408;2023-05-07T03:07:01;9.40;;;8.43;;
6999;SDS011;3540;53.242;10.408;2023-05-07T03:09:27;9.77;;;8.20;;
6999;SDS011;3540;53.242;10.408;2023-05-07T03:11:52;10.33;;;8.70;;
6999;SDS011;3540;53.242;10.408;2023-05-07T03:14:18;8.93;;;7.87;;
6999;SDS011;3540;53.242;10.408;2023-05-07T03:16:43;11.90;;;8.37;;
6999;SDS011;3540;53.242;10.408;2023-05-07T03:19:09;10.33;;;8.70;;
6999;SDS011;3540;53.242;10.408;2023-05-07T03:21:35;8.87;;;7.63;;
6999;SDS011;3540;53.242;10.408;2023-05-07T03:24:00;9.70;;;8.30;;
6999;SDS011;3540;53.242;10.408;2023-05-07T03:26:26;10.60;;;8.50;;
6999;SDS011;3540;53.242;10.408;2023-05-07T03:28:52;11.33;;;8.10;;
6999;SDS011;3540;53.242;10.408;2023-05-07T03:31:17;10.67;;;8.53;;
6999;SDS011;3540;53.242;10.408;2023-05-07T03:33:52;13.77;;;8.83;;
6999;SDS011;3540;53.242;10.408;2023-05-07T03:36:19;10.60;;;8.50;;
6999;SDS011;3540;53.242;10.408;2023-05-07T03:38:45;9.97;;;8.43;;
6999;SDS011;3540;53.242;10.408;2023-05-07T03:41:11;10.23;;;8.30;;
6999;SDS011;3540;53.242;10.408;2023-05-07T03:43:37;10.90;;;8.87;;
6999;SDS011;3540;53.242;10.408;2023-05-07T03:46:03;10.00;;;8.37;;
6999;SDS011;3540;53.242;10.408;2023-05-07T03:48:28;10.17;;;8.40;;
6999;SDS011;3540;53.242;10.408;2023-05-07T03:50:54;9.50;;;8.40;;
6999;SDS011;3540;53.242;10.408;2023-05-07T03:53:20;10.47;;;8.37;;
6999;SDS011;3540;53.242;10.408;2023-05-07T03:55:46;12.03;;;8.90;;
6999;SDS011;3540;53.242;10.408;2023-05-07T03:58:11;9.37;;;7.60;;
6999;SDS011;3540;53.242;10.408;2023-05-07T04:00:37;10.30;;;7.57;;
6999;SDS011;3540;53.242;10.408;2023-05-07T04:03:04;11.33;;;7.93;;
6999;SDS011;3540;53.242;10.408;2023-05-07T04:05:30;11.53;;;8.60;;
6999;SDS011;3540;53.242;10.408;2023-05-07T04:07:59;10.10;;;8.30;;
6999;SDS011;3540;53.242;10.408;2023-05-07T04:10:26;10.60;;;8.70;;
6999;SDS011;3540;53.242;10.408;2023-05-07T04:12:53;9.47;;;8.27;;
6999;SDS011;3540;53.242;10.408;2023-05-07T04:15:18;11.07;;;8.67;;
6999;SDS011;3540;53.242;10.408;2023-05-07T04:17:44;11.07;;;8.70;;
6999;SDS011;3540;53.242;10.408;2023-05-07T04:20:13;11.50;;;8.67;;
6999;SDS011;3540;53.242;10.408;2023-05-07T04:22:40;10.17;;;8.73;;
6999;SDS011;3540;53.242;10.408;2023-05-07T04:25:06;10.80;;;8.50;;
6999;SDS011;3540;53.242;10.408;2023-05-07T04:27:33;11.73;;;8.63;;
6999;SDS011;3540;53.242;10.408;2023-05-07T04:29:58;12.57;;;8.73;;
6999;SDS011;3540;53.242;10.408;2023-05-07T04:32:25;10.93;;;8.23;;
6999;SDS011;3540;53.242;10.408;2023-05-07T04:34:51;10.60;;;8.30;;
6999;SDS011;3540;53.242;10.408;2023-05-07T04:37:17;10.10;;;8.10;;
6999;SDS011;3540;53.242;10.408;2023-05-07T04:39:43;12.40;;;8.40;;
6999;SDS011;3540;53.242;10.408;2023-05-07T04:42:08;10.10;;;8.50;;
6999;SDS011;3540;53.242;10.408;2023-05-07T04:44:35;11.77;;;8.53;;
6999;SDS011;3540;53.242;10.408;2023-05-07T04:47:02;10.37;;;8.07;;
6999;SDS011;3540;53.242;10.408;2023-05-07T04:49:27;9.87;;;8.13;;
6999;SDS011;3540;53.242;10.408;2023-05-07T04:51:53;10.10;;;7.63;;
6999;SDS011;3540;53.242;10.408;2023-05-07T04:54:19;8.97;;;7.90;;
6999;SDS011;3540;53.242;10.408;2023-05-07T04:56:44;10.70;;;7.67;;
6999;SDS011;3540;53.242;10.408;2023-05-07T04:59:10;10.07;;;7.67;;
6999;SDS011;3540;53.242;10.408;2023-05-07T05:01:36;11.07;;;8.60;;
6999;SDS011;3540;53.242;10.408;2023-05-07T05:04:01;9.20;;;7.50;;
6999;SDS011;3540;53.242;10.408;2023-05-07T05:06:27;11.70;;;8.17;;
6999;SDS011;3540;53.242;10.408;2023-05-07T05:08:53;9.20;;;7.47;;
6999;SDS011;3540;53.242;10.408;2023-05-07T05:11:18;9.90;;;7.17;;
6999;SDS011;3540;53.242;10.408;2023-05-07T05:13:44;9.97;;;7.43;;
6999;SDS011;3540;53.242;10.408;2023-05-07T05:16:09;10.63;;;7.80;;
6999;SDS011;3540;53.242;10.408;2023-05-07T05:18:35;10.73;;;8.30;;
6999;SDS011;3540;53.242;10.408;2023-05-07T05:21:01;9.23;;;8.23;;
6999;SDS011;3540;53.242;10.408;2023-05-07T05:23:26;9.37;;;7.40;;
6999;SDS011;3540;53.242;10.408;2023-05-07T05:25:55;8.23;;;7.33;;
6999;SDS011;3540;53.242;10.408;2023-05-07T05:28:22;9.13;;;7.40;;
6999;SDS011;3540;53.242;10.408;2023-05-07T05:30:48;9.23;;;7.40;;
6999;SDS011;3540;53.242;10.408;2023-05-07T05:33:14;9.37;;;7.70;;
6999;SDS011;3540;53.242;10.408;2023-05-07T05:35:40;9.03;;;7.43;;
6999;SDS011;3540;53.242;10.408;2023-05-07T05:38:06;10.83;;;8.40;;
6999;SDS011;3540;53.242;10.408;2023-05-07T05:40:31;8.77;;;7.73;;
6999;SDS011;3540;53.242;10.408;2023-05-07T05:42:58;8.87;;;7.33;;
6999;SDS011;3540;53.242;10.408;2023-05-07T05:45:24;11.13;;;7.43;;
6999;SDS011;3540;53.242;10.408;2023-05-07T05:47:49;8.53;;;7.20;;
6999;SDS011;3540;53.242;10.408;2023-05-07T05:50:15;10.63;;;8.10;;
6999;SDS011;3540;53.242;10.408;2023-05-07T05:52:41;9.40;;;7.53;;
6999;SDS011;3540;53.242;10.408;2023-05-07T05:55:07;9.37;;;7.87;;
6999;SDS011;3540;53.242;10.408;2023-05-07T05:57:33;10.10;;;7.37;;
6999;SDS011;3540;53.242;10.408;2023-05-07T05:59:59;9.17;;;7.37;;
6999;SDS011;3540;53.242;10.408;2023-05-07T06:02:26;9.63;;;7.33;;
6999;SDS011;3540;53.242;10.408;2023-05-07T06:04:52;10.23;;;7.33;;
6999;SDS011;3540;53.242;10.408;2023-05-07T06:07:18;8.83;;;7.03;;
6999;SDS011;3540;53.242;10.408;2023-05-07T06:09:43;9.97;;;7.40;;
6999;SDS011;3540;53.242;10.408;2023-05-07T06:12:09;9.90;;;7.80;;
6999;SDS011;3540;53.242;10.408;2023-05-07T06:14:34;10.17;;;7.70;;
6999;SDS011;3540;53.242;10.408;2023-05-07T06:17:00;10.70;;;7.83;;
6999;SDS011;3540;53.242;10.408;2023-05-07T06:19:25;8.70;;;7.20;;
6999;SDS011;3540;53.242;10.408;2023-05-07T06:21:53;10.77;;;7.33;;
6999;SDS011;3540;53.242;10.408;2023-05-07T06:24:18;9.30;;;6.43;;
6999;SDS011;3540;53.242;10.408;2023-05-07T06:26:44;7.87;;;6.73;;
6999;SDS011;3540;53.242;10.408;2023-05-07T06:29:10;9.30;;;6.73;;
6999;SDS011;3540;53.242;10.408;2023-05-07T06:31:35;9.53;;;7.10;;
6999;SDS011;3540;53.242;10.408;2023-05-07T06:34:01;7.40;;;6.37;;
6999;SDS011;3540;53.242;10.408;2023-05-07T06:36:27;9.37;;;6.83;;
6999;SDS011;3540;53.242;10.408;2023-05-07T06:38:53;9.97;;;6.67;;
6999;SDS011;3540;53.242;10.408;2023-05-07T06:41:19;7.63;;;6.07;;
6999;SDS011;3540;53.242;10.408;2023-05-07T06:43:45;7.67;;;6.30;;
6999;SDS011;3540;53.242;10.408;2023-05-07T06:46:11;11.37;;;6.23;;
6999;SDS011;3540;53.242;10.408;2023-05-07T06:48:36;9.37;;;7.03;;
6999;SDS011;3540;53.242;10.408;2023-05-07T06:51:02;7.20;;;5.80;;
6999;SDS011;3540;53.242;10.408;2023-05-07T06:53:28;8.20;;;6.37;;
6999;SDS011;3540;53.242;10.408;2023-05-07T06:55:55;11.53;;;6.73;;
6999;SDS011;3540;53.242;10.408;2023-05-07T06:58:21;9.40;;;6.37;;
6999;SDS011;3540;53.242;10.408;2023-05-07T07:00:47;10.20;;;6.90;;
6999;SDS011;3540;53.242;10.408;2023-05-07T07:03:12;9.30;;;6.43;;
6999;SDS011;3540;53.242;10.408;2023-05-07T07:05:39;7.40;;;5.93;;
6999;SDS011;3540;53.242;10.408;2023-05-07T07:08:06;7.20;;;5.83;;
6999;SDS011;3540;53.242;10.408;2023-05-07T07:10:31;8.67;;;6.20;;
6999;SDS011;3540;53.242;10.408;2023-05-07T07:12:57;9.30;;;6.27;;
6999;SDS011;3540;53.242;10.408;2023-05-07T07:15:22;7.30;;;5.60;;
6999;SDS011;3540;53.242;10.408;2023-05-07T07:17:49;7.03;;;5.70;;
6999;SDS011;3540;53.242;10.408;2023-05-07T07:20:15;7.17;;;5.60;;
6999;SDS011;3540;53.242;10.408;2023-05-07T07:22:41;8.73;;;5.80;;
6999;SDS011;3540;53.242;10.408;2023-05-07T07:25:09;8.07;;;6.40;;
6999;SDS011;3540;53.242;10.408;2023-05-07T07:27:36;9.37;;;6.03;;
6999;SDS011;3540;53.242;10.408;2023-05-07T07:30:02;7.47;;;5.87;;
6999;SDS011;3540;53.242;10.408;2023-05-07T07:32:28;6.87;;;5.60;;
6999;SDS011;3540;53.242;10.408;2023-05-07T07:34:53;6.17;;;5.27;;
6999;SDS011;3540;53.242;10.408;2023-05-07T07:37:19;7.20;;;5.20;;
6999;SDS011;3540;53.242;10.408;2023-05-07T07:39:45;7.23;;;5.00;;
6999;SDS011;3540;53.242;10.408;2023-05-07T07:42:10;6.97;;;5.20;;
6999;SDS011;3540;53.242;10.408;2023-05-07T07:44:36;5.33;;;4.80;;
6999;SDS011;3540;53.242;10.408;2023-05-07T07:47:01;6.33;;;4.90;;
6999;SDS011;3540;53.242;10.408;2023-05-07T07:49:27;5.27;;;4.60;;
6999;SDS011;3540;53.242;10.408;2023-05-07T07:51:53;9.23;;;4.80;;
6999;SDS011;3540;53.242;10.408;2023-05-07T07:54:18;6.07;;;5.27;;
6999;SDS011;3540;53.242;10.408;2023-05-07T07:56:44;8.57;;;5.40;;
6999;SDS011;3540;53.242;10.408;2023-05-07T07:59:09;5.40;;;4.70;;
6999;SDS011;3540;53.242;10.408;2023-05-07T08:01:35;6.17;;;4.70;;
6999;SDS011;3540;53.242;10.408;2023-05-07T08:04:01;6.67;;;4.87;;
6999;SDS011;3540;53.242;10.408;2023-05-07T08:06:28;6.87;;;4.70;;
6999;SDS011;3540;53.242;10.408;2023-05-07T08:08:54;7.97;;;4.80;;
6999;SDS011;3540;53.242;10.408;2023-05-07T08:11:20;7.97;;;4.70;;
6999;SDS011;3540;53.242;10.408;2023-05-07T08:13:46;7.00;;;5.30;;
6999;SDS011;3540;53.242;10.408;2023-05-07T08:16:13;7.07;;;5.77;;
6999;SDS011;3540;53.242;10.408;2023-05-07T08:18:39;7.53;;;5.20;;
6999;SDS011;3540;53.242;10.408;2023-05-07T08:21:04;7.03;;;5.50;;
6999;SDS011;3540;53.242;10.408;2023-05-07T08:23:30;6.07;;;5.37;;
6999;SDS011;3540;53.242;10.408;2023-05-07T08:25:56;6.63;;;5.37;;
6999;SDS011;3540;53.242;10.408;2023-05-07T08:28:22;10.30;;;5.53;;
6999;SDS011;3540;53.242;10.408;2023-05-07T08:30:49;7.23;;;6.00;;
6999;SDS011;3540;53.242;10.408;2023-05-07T08:33:15;7.53;;;5.70;;
6999;SDS011;3540;53.242;10.408;2023-05-07T08:35:41;6.70;;;5.33;;
6999;SDS011;3540;53.242;10.408;2023-05-07T08:38:06;8.10;;;5.90;;
6999;SDS011;3540;53.242;10.408;2023-05-07T08:40:34;6.27;;;5.67;;
6999;SDS011;3540;53.242;10.408;2023-05-07T08:43:03;8.23;;;5.60;;
6999;SDS011;3540;53.242;10.408;2023-05-07T08:45:31;8.33;;;5.83;;
6999;SDS011;3540;53.242;10.408;2023-05-07T08:47:58;8.17;;;5.50;;
6999;SDS011;3540;53.242;10.408;2023-05-07T08:50:27;8.77;;;5.60;;
6999;SDS011;3540;53.242;10.408;2023-05-07T08:52:53;6.83;;;6.13;;
6999;SDS011;3540;53.242;10.408;2023-05-07T08:55:19;6.37;;;5.73;;
6999;SDS011;3540;53.242;10.408;2023-05-07T08:57:45;7.80;;;5.60;;
6999;SDS011;3540;53.242;10.408;2023-05-07T09:00:12;7.20;;;5.80;;
6999;SDS011;3540;53.242;10.408;2023-05-07T09:02:38;9.40;;;6.27;;
6999;SDS011;3540;53.242;10.408;2023-05-07T09:05:04;7.97;;;5.10;;
6999;SDS011;3540;53.242;10.408;2023-05-07T09:07:30;13.10;;;6.30;;
6999;SDS011;3540;53.242;10.408;2023-05-07T09:09:56;7.93;;;6.43;;
6999;SDS011;3540;53.242;10.408;2023-05-07T09:12:22;6.87;;;6.00;;
6999;SDS011;3540;53.242;10.408;2023-05-07T09:14:48;6.83;;;6.07;;
6999;SDS011;3540;53.242;10.408;2023-05-07T09:17:17;7.10;;;6.00;;
6999;SDS011;3540;53.242;10.408;2023-05-07T09:19:44;7.67;;;5.90;;
6999;SDS011;3540;53.242;10.408;2023-05-07T09:22:13;9.67;;;5.40;;
6999;SDS011;3540;53.242;10.408;2023-05-07T09:24:39;7.17;;;5.87;;
6999;SDS011;3540;53.242;10.408;2023-05-07T09:27:05;8.10;;;6.03;;
6999;SDS011;3540;53.242;10.408;2023-05-07T09:29:31;6.13;;;5.47;;
6999;SDS011;3540;53.242;10.408;2023-05-07T09:32:07;8.67;;;6.03;;
6999;SDS011;3540;53.242;10.408;2023-05-07T09:34:34;8.20;;;6.80;;
6999;SDS011;3540;53.242;10.408;2023-05-07T09:37:03;8.20;;;6.10;;
6999;SDS011;3540;53.242;10.408;2023-05-07T09:39:42;7.27;;;5.93;;
6999;SDS011;3540;53.242;10.408;2023-05-07T09:42:11;8.73;;;6.17;;
6999;SDS011;3540;53.242;10.408;2023-05-07T09:44:38;7.70;;;6.23;;
6999;SDS011;3540;53.242;10.408;2023-05-07T09:47:04;7.50;;;6.37;;
6999;SDS011;3540;53.242;10.408;2023-05-07T09:49:33;8.80;;;6.60;;
6999;SDS011;3540;53.242;10.408;2023-05-07T09:52:01;9.07;;;6.27;;
6999;SDS011;3540;53.242;10.408;2023-05-07T09:54:31;8.33;;;6.67;;
6999;SDS011;3540;53.242;10.408;2023-05-07T09:57:02;7.87;;;6.27;;
6999;SDS011;3540;53.242;10.408;2023-05-07T09:59:31;9.60;;;6.00;;
6999;SDS011;3540;53.242;10.408;2023-05-07T10:01:57;7.27;;;5.83;;
6999;SDS011;3540;53.242;10.408;2023-05-07T10:04:24;8.03;;;5.90;;
6999;SDS011;3540;53.242;10.408;2023-05-07T10:06:51;8.53;;;5.83;;
6999;SDS011;3540;53.242;10.408;2023-05-07T10:09:18;7.20;;;5.67;;
6999;SDS011;3540;53.242;10.408;2023-05-07T10:11:45;8.83;;;5.90;;
6999;SDS011;3540;53.242;10.408;2023-05-07T10:14:11;6.83;;;5.60;;
6999;SDS011;3540;53.242;10.408;2023-05-07T10:16:37;7.93;;;5.53;;
6999;SDS011;3540;53.242;10.408;2023-05-07T10:19:03;5.90;;;5.20;;
6999;SDS011;3540;53.242;10.408;2023-05-07T10:21:30;9.17;;;4.93;;
6999;SDS011;3540;53.242;10.408;2023-05-07T10:24:01;5.77;;;5.10;;
6999;SDS011;3540;53.242;10.408;2023-05-07T10:26:35;7.47;;;5.50;;
6999;SDS011;3540;53.242;10.408;2023-05-07T10:29:04;6.63;;;5.20;;
6999;SDS011;3540;53.242;10.408;2023-05-07T10:34:11;5.60;;;5.10;;
6999;SDS011;3540;53.242;10.408;2023-05-07T10:36:40;5.70;;;5.10;;
6999;SDS011;3540;53.242;10.408;2023-05-07T10:39:07;7.40;;;5.20;;
6999;SDS011;3540;53.242;10.408;2023-05-07T10:41:36;7.27;;;5.20;;
6999;SDS011;3540;53.242;10.408;2023-05-07T10:44:01;7.10;;;5.37;;
6999;SDS011;3540;53.242;10.408;2023-05-07T10:46:28;7.57;;;5.37;;
6999;SDS011;3540;53.242;10.408;2023-05-07T10:51:26;6.27;;;4.97;;
6999;SDS011;3540;53.242;10.408;2023-05-07T10:56:42;6.07;;;5.07;;
6999;SDS011;3540;53.242;10.408;2023-05-07T11:04:25;6.23;;;4.97;;
6999;SDS011;3540;53.242;10.408;2023-05-07T11:17:51;5.30;;;4.70;;
6999;SDS011;3540;53.242;10.408;2023-05-07T11:20:18;6.67;;;4.60;;
6999;SDS011;3540;53.242;10.408;2023-05-07T11:22:45;5.17;;;4.63;;
6999;SDS011;3540;53.242;10.408;2023-05-07T11:25:11;5.17;;;4.30;;
6999;SDS011;3540;53.242;10.408;2023-05-07T11:27:46;5.93;;;4.40;;
6999;SDS011;3540;53.242;10.408;2023-05-07T11:30:18;7.33;;;4.07;;
6999;SDS011;3540;53.242;10.408;2023-05-07T11:32:44;6.33;;;3.90;;
6999;SDS011;3540;53.242;10.408;2023-05-07T11:35:13;4.80;;;3.83;;
6999;SDS011;3540;53.242;10.408;2023-05-07T11:37:40;7.07;;;4.30;;
6999;SDS011;3540;53.242;10.408;2023-05-07T11:40:07;4.87;;;4.30;;
6999;SDS011;3540;53.242;10.408;2023-05-07T11:42:36;5.73;;;3.97;;
6999;SDS011;3540;53.242;10.408;2023-05-07T11:45:03;4.53;;;3.90;;
6999;SDS011;3540;53.242;10.408;2023-05-07T11:47:31;8.80;;;3.40;;
6999;SDS011;3540;53.242;10.408;2023-05-07T11:49:57;4.50;;;3.80;;
6999;SDS011;3540;53.242;10.408;2023-05-07T11:52:31;5.53;;;3.87;;
6999;SDS011;3540;53.242;10.408;2023-05-07T11:54:57;6.70;;;4.53;;
6999;SDS011;3540;53.242;10.408;2023-05-07T11:57:25;5.17;;;4.10;;
6999;SDS011;3540;53.242;10.408;2023-05-07T12:02:24;3.37;;;3.07;;
6999;SDS011;3540;53.242;10.408;2023-05-07T12:04:53;4.17;;;3.50;;
6999;SDS011;3540;53.242;10.408;2023-05-07T12:07:19;5.77;;;3.33;;
6999;SDS011;3540;53.242;10.408;2023-05-07T12:09:46;4.23;;;3.37;;
6999;SDS011;3540;53.242;10.408;2023-05-07T12:12:12;3.77;;;3.40;;
6999;SDS011;3540;53.242;10.408;2023-05-07T12:14:43;6.40;;;3.40;;
6999;SDS011;3540;53.242;10.408;2023-05-07T12:17:11;3.87;;;3.47;;
6999;SDS011;3540;53.242;10.408;2023-05-07T12:19:38;3.70;;;3.33;;
6999;SDS011;3540;53.242;10.408;2023-05-07T12:22:05;3.73;;;3.17;;
6999;SDS011;3540;53.242;10.408;2023-05-07T12:24:49;4.67;;;3.30;;
6999;SDS011;3540;53.242;10.408;2023-05-07T12:27:21;3.93;;;3.50;;
6999;SDS011;3540;53.242;10.408;2023-05-07T12:29:48;4.97;;;3.00;;
6999;SDS011;3540;53.242;10.408;2023-05-07T12:32:15;3.50;;;3.10;;
6999;SDS011;3540;53.242;10.408;2023-05-07T12:34:42;4.83;;;3.03;;
6999;SDS011;3540;53.242;10.408;2023-05-07T12:37:08;4.47;;;3.20;;
6999;SDS011;3540;53.242;10.408;2023-05-07T12:39:35;4.67;;;2.93;;
6999;SDS011;3540;53.242;10.408;2023-05-07T12:42:00;3.07;;;2.67;;
6999;SDS011;3540;53.242;10.408;2023-05-07T12:44:30;4.70;;;2.93;;
6999;SDS011;3540;53.242;10.408;2023-05-07T12:46:57;4.37;;;3.13;;
6999;SDS011;3540;53.242;10.408;2023-05-07T12:49:23;3.30;;;3.00;;
6999;SDS011;3540;53.242;10.408;2023-05-07T12:51:50;2.87;;;2.67;;
6999;SDS011;3540;53.242;10.408;2023-05-07T12:54:28;6.50;;;2.70;;
6999;SDS011;3540;53.242;10.408;2023-05-07T12:57:05;2.80;;;2.60;;
6999;SDS011;3540;53.242;10.408;2023-05-07T13:01:58;3.17;;;2.50;;
6999;SDS011;3540;53.242;10.408;2023-05-07T13:04:24;3.53;;;2.83;;
6999;SDS011;3540;53.242;10.408;2023-05-07T13:06:50;3.10;;;2.77;;
6999;SDS011;3540;53.242;10.408;2023-05-07T13:09:15;5.23;;;2.47;;
6999;SDS011;3540;53.242;10.408;2023-05-07T13:11:41;2.83;;;2.57;;
6999;SDS011;3540;53.242;10.408;2023-05-07T13:14:06;2.87;;;2.60;;
6999;SDS011;3540;53.242;10.408;2023-05-07T13:16:33;4.20;;;2.70;;
6999;SDS011;3540;53.242;10.408;2023-05-07T13:18:58;3.97;;;2.50;;
6999;SDS011;3540;53.242;10.408;2023-05-07T13:21:24;2.97;;;2.30;;
6999;SDS011;3540;53.242;10.408;2023-05-07T13:23:50;3.07;;;2.33;;
6999;SDS011;3540;53.242;10.408;2023-05-07T13:26:16;2.57;;;2.37;;
6999;SDS011;3540;53.242;10.408;2023-05-07T13:28:41;4.97;;;2.80;;
6999;SDS011;3540;53.242;10.408;2023-05-07T13:31:08;3.27;;;2.40;;
6999;SDS011;3540;53.242;10.408;2023-05-07T13:33:34;2.50;;;2.30;;
6999;SDS011;3540;53.242;10.408;2023-05-07T13:36:00;2.40;;;2.10;;
6999;SDS011;3540;53.242;10.408;2023-05-07T13:38:27;2.40;;;2.10;;
6999;SDS011;3540;53.242;10.408;2023-05-07T13:40:52;3.10;;;2.20;;
6999;SDS011;3540;53.242;10.408;2023-05-07T13:43:18;3.43;;;2.00;;
6999;SDS011;3540;53.242;10.408;2023-05-07T13:45:44;2.40;;;2.10;;
6999;SDS011;3540;53.242;10.408;2023-05-07T13:48:09;2.87;;;2.40;;
6999;SDS011;3540;53.242;10.408;2023-05-07T13:50:35;2.23;;;2.00;;
6999;SDS011;3540;53.242;10.408;2023-05-07T13:53:01;2.60;;;2.40;;
6999;SDS011;3540;53.242;10.408;2023-05-07T13:55:28;3.27;;;2.20;;
6999;SDS011;3540;53.242;10.408;2023-05-07T13:58:01;2.43;;;2.23;;
6999;SDS011;3540;53.242;10.408;2023-05-07T14:00:28;2.57;;;2.13;;
6999;SDS011;3540;53.242;10.408;2023-05-07T14:02:55;2.27;;;2.00;;
6999;SDS011;3540;53.242;10.408;2023-05-07T14:05:21;2.37;;;2.03;;
6999;SDS011;3540;53.242;10.408;2023-05-07T14:07:48;2.47;;;2.00;;
6999;SDS011;3540;53.242;10.408;2023-05-07T14:10:16;2.40;;;2.20;;
6999;SDS011;3540;53.242;10.408;2023-05-07T14:12:43;2.57;;;2.00;;
6999;SDS011;3540;53.242;10.408;2023-05-07T14:15:09;2.17;;;2.00;;
6999;SDS011;3540;53.242;10.408;2023-05-07T14:17:35;2.20;;;2.00;;
6999;SDS011;3540;53.242;10.408;2023-05-07T14:20:04;2.30;;;2.10;;
6999;SDS011;3540;53.242;10.408;2023-05-07T14:22:31;2.87;;;2.43;;
6999;SDS011;3540;53.242;10.408;2023-05-07T14:24:57;2.30;;;2.10;;
6999;SDS011;3540;53.242;10.408;2023-05-07T14:27:23;2.27;;;2.07;;
6999;SDS011;3540;53.242;10.408;2023-05-07T14:29:48;3.37;;;2.23;;
6999;SDS011;3540;53.242;10.408;2023-05-07T14:32:18;3.60;;;2.20;;
6999;SDS011;3540;53.242;10.408;2023-05-07T14:34:44;2.20;;;2.00;;
6999;SDS011;3540;53.242;10.408;2023-05-07T14:37:10;1.93;;;1.80;;
6999;SDS011;3540;53.242;10.408;2023-05-07T14:39:36;2.63;;;2.00;;
6999;SDS011;3540;53.242;10.408;2023-05-07T14:42:02;2.70;;;2.20;;
6999;SDS011;3540;53.242;10.408;2023-05-07T14:44:27;2.47;;;2.07;;
6999;SDS011;3540;53.242;10.408;2023-05-07T14:46:53;4.37;;;2.20;;
6999;SDS011;3540;53.242;10.408;2023-05-07T14:49:19;3.40;;;2.00;;
6999;SDS011;3540;53.242;10.408;2023-05-07T14:51:45;2.28;;;1.90;;
6999;SDS011;3540;53.242;10.408;2023-05-07T14:54:15;4.35;;;2.20;;
6999;SDS011;3540;53.242;10.408;2023-05-07T14:56:40;2.10;;;1.90;;
6999;SDS011;3540;53.242;10.408;2023-05-07T14:59:07;2.03;;;1.88;;
6999;SDS011;3540;53.242;10.408;2023-05-07T15:01:36;3.10;;;2.05;;
6999;SDS011;3540;53.242;10.408;2023-05-07T15:04:05;2.40;;;1.98;;
6999;SDS011;3540;53.242;10.408;2023-05-07T15:06:31;2.22;;;1.95;;
6999;SDS011;3540;53.242;10.408;2023-05-07T15:08:57;2.58;;;1.95;;
6999;SDS011;3540;53.242;10.408;2023-05-07T15:11:23;2.63;;;1.90;;
6999;SDS011;3540;53.242;10.408;2023-05-07T15:13:49;2.20;;;2.00;;
6999;SDS011;3540;53.242;10.408;2023-05-07T15:16:14;2.53;;;2.10;;
6999;SDS011;3540;53.242;10.408;2023-05-07T15:18:40;1.90;;;1.70;;
6999;SDS011;3540;53.242;10.408;2023-05-07T15:21:06;3.88;;;2.30;;
6999;SDS011;3540;53.242;10.408;2023-05-07T15:23:31;2.17;;;1.98;;